createdAt,value
2022-11-16T00:00:05.879Z,45.04260131483023
2022-11-16T00:15:02.269Z,45.086271947967255
2022-11-16T00:30:01.933Z,44.500160489712314
2022-11-16T00:45:01.653Z,44.05620661218424
2022-11-16T01:00:02.241Z,43.66846836038689
2022-11-16T01:15:01.851Z,43.74720391023517
2022-11-16T01:30:02.522Z,44.59873501358391
2022-11-16T01:45:02.207Z,45.76438481907953
2022-11-16T02:00:01.848Z,46.07336633317208
2022-11-16T02:15:02.504Z,46.01494890881442
2022-11-16T02:30:02.170Z,46.32552147639194
2022-11-16T02:45:01.831Z,46.364028452213745
2022-11-16T03:00:01.458Z,46.555272856246326
2022-11-16T03:15:02.102Z,46.910478958698654
2022-11-16T03:30:01.811Z,46.9308757416867
2022-11-16T03:45:01.483Z,46.78917089462393
2022-11-16T04:00:02.110Z,46.77829168141764
2022-11-16T04:15:01.768Z,47.19004856316489
2022-11-16T04:30:01.484Z,47.08955310532613
2022-11-16T04:45:02.137Z,47.54714500468458
2022-11-16T05:00:01.789Z,47.71751171749826
2022-11-16T05:15:01.472Z,47.56118597447812
2022-11-16T05:30:02.201Z,47.8042973816602
2022-11-16T05:45:01.847Z,48.430043874700296
2022-11-16T06:00:01.550Z,48.88554589099104
2022-11-16T06:15:02.359Z,50.290235620000495
2022-11-16T06:30:02.085Z,49.09073943749634
2022-11-16T06:45:01.759Z,48.87164833350398
2022-11-16T07:00:01.425Z,49.016936257570016
2022-11-16T07:15:02.103Z,48.16157350049312
2022-11-16T07:30:01.831Z,48.156836034288574
2022-11-16T07:45:01.520Z,48.60284116261591
2022-11-16T08:00:02.357Z,48.778095416857845
2022-11-16T08:15:02.167Z,47.539795624683045
2022-11-16T08:30:01.828Z,48.033591776349986
2022-11-16T08:45:02.448Z,47.91370628862348
2022-11-16T09:00:02.112Z,48.32472998518423
2022-11-16T09:15:01.776Z,48.09720197319413
2022-11-16T09:30:02.446Z,47.26020340343134
2022-11-16T09:45:02.114Z,46.6424056143897
2022-11-16T10:00:01.822Z,46.790984833077125
2022-11-16T10:15:01.524Z,47.58868794339346
2022-11-16T10:30:02.232Z,48.48125133625141
2022-11-16T10:45:01.981Z,48.595610974234816
2022-11-16T11:00:01.683Z,47.53138121616457
2022-11-16T11:15:02.416Z,48.041932624115425
2022-11-16T11:30:02.097Z,46.76733092526026
2022-11-16T11:45:01.771Z,46.38850919560099
2022-11-16T12:00:02.460Z,43.94291685353106
2022-11-16T12:15:02.161Z,44.316740165496014
2022-11-16T12:30:01.878Z,45.430038923373004
2022-11-16T12:45:01.582Z,45.35865377189269
2022-11-16T13:00:02.248Z,45.27521589916076
2022-11-16T13:15:01.914Z,45.19382772871702
2022-11-16T13:30:01.655Z,45.35207533218328
2022-11-16T13:45:02.307Z,45.40390555056678
2022-11-16T14:00:01.955Z,40.63044358974639
2022-11-16T14:15:03.735Z,42.20235953082896
2022-11-16T14:30:01.838Z,41.11505062432524
2022-11-16T14:45:01.530Z,39.37655737018639
2022-11-16T15:00:02.206Z,39.07536578690697
2022-11-16T15:15:01.856Z,42.36333386647832
2022-11-16T15:30:01.535Z,45.71504979700488
2022-11-16T15:45:02.185Z,47.05775528659192
2022-11-16T16:00:01.952Z,47.74464044568086
2022-11-16T16:15:01.774Z,47.8791792414356
2022-11-16T16:30:02.586Z,48.0407608468233
2022-11-16T16:45:02.357Z,47.90655363067302
2022-11-16T17:00:02.127Z,47.43843765187544
2022-11-16T17:15:01.813Z,47.60062330337901
2022-11-16T17:30:02.762Z,47.19527192413709
2022-11-16T17:45:02.387Z,47.52758572763347
2022-11-16T18:00:01.976Z,47.33748079134958
2022-11-16T18:15:26.333Z,46.73691276080803
2022-11-16T18:30:02.403Z,46.13786304527227
2022-11-16T18:45:02.015Z,45.796539947860644
2022-11-16T19:00:01.675Z,45.76605338294476
2022-11-16T19:15:02.367Z,45.521935512546236
2022-11-16T19:30:02.014Z,45.4064765008636
2022-11-16T19:45:01.712Z,46.157611893047466
2022-11-16T20:00:02.320Z,46.112513607197116
2022-11-16T20:15:01.976Z,46.65218315128343
2022-11-16T20:30:06.487Z,46.18954429200593
2022-11-16T20:45:01.901Z,45.99097296912647
2022-11-16T21:00:01.582Z,46.50386416854914
2022-11-16T21:15:02.256Z,46.15472177246816
2022-11-16T21:30:02.035Z,45.99864430645603
2022-11-16T21:45:01.712Z,46.27699552963674
2022-11-16T22:00:01.362Z,47.00214081705961
2022-11-16T22:15:02.050Z,47.49428514424723
2022-11-16T22:30:01.774Z,46.65509611830698
2022-11-16T22:45:01.417Z,47.12729509069054
2022-11-16T23:00:02.083Z,47.36652176618921
2022-11-16T23:15:01.745Z,47.33372412036036
2022-11-16T23:30:01.438Z,46.96976653816333
2022-11-16T23:45:02.132Z,46.9480808248643
